sensor_id;sensor_type;location;lat;lon;timestamp;temperature;humidity
27026;DHT22;14565;48.626;8.978;2023-04-15T09:28:44;12.30;96.30
27026;DHT22;14565;48.626;8.978;2023-04-15T09:31:10;12.20;96.90
27026;DHT22;14565;48.626;8.978;2023-04-15T09:33:53;12.50;95.40
27026;DHT22;14565;48.626;8.978;2023-04-15T09:36:19;12.70;95.90
27026;DHT22;14565;48.626;8.978;2023-04-15T09:38:58;12.80;95.60
27026;DHT22;14565;48.626;8.978;2023-04-15T09:41:25;12.90;95.00
27026;DHT22;14565;48.626;8.978;2023-04-15T09:43:51;12.80;95.30
27026;DHT22;14565;48.626;8.978;2023-04-15T09:46:17;13.30;94.80
27026;DHT22;14565;48.626;8.978;2023-04-15T09:48:43;12.80;95.40
27026;DHT22;14565;48.626;8.978;2023-04-15T09:51:14;13.20;95.50
27026;DHT22;14565;48.626;8.978;2023-04-15T09:53:40;13.20;94.80
27026;DHT22;14565;48.626;8.978;2023-04-15T09:56:06;13.00;94.00
27026;DHT22;14565;48.626;8.978;2023-04-15T09:58:34;12.90;94.80
27026;DHT22;14565;48.626;8.978;2023-04-15T10:01:03;13.30;94.70
27026;DHT22;14565;48.626;8.978;2023-04-15T10:03:32;13.20;94.70
27026;DHT22;14565;48.626;8.978;2023-04-15T10:06:00;13.10;92.70
27026;DHT22;14565;48.626;8.978;2023-04-15T10:08:28;13.10;93.70
27026;DHT22;14565;48.626;8.978;2023-04-15T10:10:54;13.50;93.40
27026;DHT22;14565;48.626;8.978;2023-04-15T10:13:25;13.20;93.00
27026;DHT22;14565;48.626;8.978;2023-04-15T10:16:00;12.90;94.40
27026;DHT22;14565;48.626;8.978;2023-04-15T10:18:33;13.20;93.10
27026;DHT22;14565;48.626;8.978;2023-04-15T10:21:00;13.50;94.70
27026;DHT22;14565;48.626;8.978;2023-04-15T10:23:27;13.30;94.30
27026;DHT22;14565;48.626;8.978;2023-04-15T10:25:53;13.40;95.40
27026;DHT22;14565;48.626;8.978;2023-04-15T10:28:20;14.10;94.00
27026;DHT22;14565;48.626;8.978;2023-04-15T10:30:49;14.10;93.70
27026;DHT22;14565;48.626;8.978;2023-04-15T10:33:17;14.60;92.60
27026;DHT22;14565;48.626;8.978;2023-04-15T10:35:45;14.90;91.10
27026;DHT22;14565;48.626;8.978;2023-04-15T10:38:44;14.10;95.00
27026;DHT22;14565;48.626;8.978;2023-04-15T10:41:21;13.50;93.30
27026;DHT22;14565;48.626;8.978;2023-04-15T10:43:53;13.40;93.20
27026;DHT22;14565;48.626;8.978;2023-04-15T10:46:21;13.30;92.20
27026;DHT22;14565;48.626;8.978;2023-04-15T10:48:49;13.60;91.10
27026;DHT22;14565;48.626;8.978;2023-04-15T10:51:15;13.30;90.50
27026;DHT22;14565;48.626;8.978;2023-04-15T10:53:41;13.20;93.40
27026;DHT22;14565;48.626;8.978;2023-04-15T10:56:08;13.30;92.60
27026;DHT22;14565;48.626;8.978;2023-04-15T10:58:43;13.50;93.80
27026;DHT22;14565;48.626;8.978;2023-04-15T11:01:09;13.20;91.00
27026;DHT22;14565;48.626;8.978;2023-04-15T11:03:41;13.40;92.50
27026;DHT22;14565;48.626;8.978;2023-04-15T11:06:08;13.40;93.10
27026;DHT22;14565;48.626;8.978;2023-04-15T11:11:19;13.50;93.60
27026;DHT22;14565;48.626;8.978;2023-04-15T11:13:49;13.50;93.60
27026;DHT22;14565;48.626;8.978;2023-04-15T11:16:16;13.30;93.90
27026;DHT22;14565;48.626;8.978;2023-04-15T11:18:41;13.20;93.10
27026;DHT22;14565;48.626;8.978;2023-04-15T11:21:17;13.80;92.20
27026;DHT22;14565;48.626;8.978;2023-04-15T11:23:43;13.30;91.60
27026;DHT22;14565;48.626;8.978;2023-04-15T11:26:11;13.70;92.60
27026;DHT22;14565;48.626;8.978;2023-04-15T11:28:39;14.10;93.30
27026;DHT22;14565;48.626;8.978;2023-04-15T11:31:10;14.00;93.90
27026;DHT22;14565;48.626;8.978;2023-04-15T11:33:37;13.50;93.60
27026;DHT22;14565;48.626;8.978;2023-04-15T11:36:03;13.50;94.10
27026;DHT22;14565;48.626;8.978;2023-04-15T11:38:29;14.00;93.60
27026;DHT22;14565;48.626;8.978;2023-04-15T11:40:56;14.20;92.90
27026;DHT22;14565;48.626;8.978;2023-04-15T11:43:22;14.30;91.40
27026;DHT22;14565;48.626;8.978;2023-04-15T11:48:29;14.20;93.80
27026;DHT22;14565;48.626;8.978;2023-04-15T11:51:05;14.20;92.70
27026;DHT22;14565;48.626;8.978;2023-04-15T11:53:47;14.20;92.70
27026;DHT22;14565;48.626;8.978;2023-04-15T11:56:24;14.20;92.90
27026;DHT22;14565;48.626;8.978;2023-04-15T11:58:54;13.50;91.70
27026;DHT22;14565;48.626;8.978;2023-04-15T12:01:33;13.40;93.30
27026;DHT22;14565;48.626;8.978;2023-04-15T12:03:59;13.80;94.00
27026;DHT22;14565;48.626;8.978;2023-04-15T12:06:31;14.00;94.70
27026;DHT22;14565;48.626;8.978;2023-04-15T12:09:12;14.30;94.70
27026;DHT22;14565;48.626;8.978;2023-04-15T12:11:42;14.40;93.50
27026;DHT22;14565;48.626;8.978;2023-04-15T12:16:45;13.50;95.90
27026;DHT22;14565;48.626;8.978;2023-04-15T12:19:22;13.50;95.70
27026;DHT22;14565;48.626;8.978;2023-04-15T12:21:48;13.30;93.90
27026;DHT22;14565;48.626;8.978;2023-04-15T12:24:14;13.40;92.70
27026;DHT22;14565;48.626;8.978;2023-04-15T12:26:45;13.50;93.00
27026;DHT22;14565;48.626;8.978;2023-04-15T12:29:12;13.50;94.60
27026;DHT22;14565;48.626;8.978;2023-04-15T12:31:48;13.80;94.50
27026;DHT22;14565;48.626;8.978;2023-04-15T12:34:15;13.20;94.10
27026;DHT22;14565;48.626;8.978;2023-04-15T12:36:41;13.30;94.40
27026;DHT22;14565;48.626;8.978;2023-04-15T12:39:08;13.10;94.00
27026;DHT22;14565;48.626;8.978;2023-04-15T12:41:34;13.20;93.80
27026;DHT22;14565;48.626;8.978;2023-04-15T12:44:00;13.40;94.20
27026;DHT22;14565;48.626;8.978;2023-04-15T12:46:26;13.50;93.80
27026;DHT22;14565;48.626;8.978;2023-04-15T12:48:52;13.80;94.10
27026;DHT22;14565;48.626;8.978;2023-04-15T12:51:18;13.60;95.90
27026;DHT22;14565;48.626;8.978;2023-04-15T12:53:46;13.30;96.40
27026;DHT22;14565;48.626;8.978;2023-04-15T12:56:12;13.20;95.00
27026;DHT22;14565;48.626;8.978;2023-04-15T12:58:38;13.20;94.80
27026;DHT22;14565;48.626;8.978;2023-04-15T13:01:04;13.20;95.40
27026;DHT22;14565;48.626;8.978;2023-04-15T13:03:30;13.50;95.40
27026;DHT22;14565;48.626;8.978;2023-04-15T13:05:56;13.60;94.30
27026;DHT22;14565;48.626;8.978;2023-04-15T13:08:22;13.50;94.40
27026;DHT22;14565;48.626;8.978;2023-04-15T13:10:48;13.10;92.00
27026;DHT22;14565;48.626;8.978;2023-04-15T13:13:13;13.40;93.00
27026;DHT22;14565;48.626;8.978;2023-04-15T13:15:40;13.40;92.40
27026;DHT22;14565;48.626;8.978;2023-04-15T13:18:06;13.60;88.40
27026;DHT22;14565;48.626;8.978;2023-04-15T13:20:32;13.80;89.20
27026;DHT22;14565;48.626;8.978;2023-04-15T13:22:57;13.70;88.50
27026;DHT22;14565;48.626;8.978;2023-04-15T13:25:23;13.50;90.30
27026;DHT22;14565;48.626;8.978;2023-04-15T13:27:50;13.30;91.00
27026;DHT22;14565;48.626;8.978;2023-04-15T13:30:15;13.50;92.10
27026;DHT22;14565;48.626;8.978;2023-04-15T13:32:41;12.70;97.40
27026;DHT22;14565;48.626;8.978;2023-04-15T13:35:07;12.40;99.10
27026;DHT22;14565;48.626;8.978;2023-04-15T13:37:33;12.20;98.90
27026;DHT22;14565;48.626;8.978;2023-04-15T13:39:58;12.10;99.40
27026;DHT22;14565;48.626;8.978;2023-04-15T13:42:24;11.90;99.00
27026;DHT22;14565;48.626;8.978;2023-04-15T13:44:50;11.70;99.80
27026;DHT22;14565;48.626;8.978;2023-04-15T13:47:16;11.70;98.90
27026;DHT22;14565;48.626;8.978;2023-04-15T13:49:42;11.90;99.80
27026;DHT22;14565;48.626;8.978;2023-04-15T13:52:08;11.40;99.20
27026;DHT22;14565;48.626;8.978;2023-04-15T13:54:34;11.10;99.20
27026;DHT22;14565;48.626;8.978;2023-04-15T13:56:59;10.90;99.90
27026;DHT22;14565;48.626;8.978;2023-04-15T13:59:26;10.70;99.90
27026;DHT22;14565;48.626;8.978;2023-04-15T14:01:52;10.90;99.90
27026;DHT22;14565;48.626;8.978;2023-04-15T14:04:17;10.80;99.90
27026;DHT22;14565;48.626;8.978;2023-04-15T14:06:43;11.20;99.90
27026;DHT22;14565;48.626;8.978;2023-04-15T14:09:09;11.20;99.20
27026;DHT22;14565;48.626;8.978;2023-04-15T14:11:37;11.40;98.60
27026;DHT22;14565;48.626;8.978;2023-04-15T14:14:03;11.30;96.70
27026;DHT22;14565;48.626;8.978;2023-04-15T14:16:28;11.60;95.10
27026;DHT22;14565;48.626;8.978;2023-04-15T14:18:54;11.50;96.20
27026;DHT22;14565;48.626;8.978;2023-04-15T14:21:20;11.60;96.00
27026;DHT22;14565;48.626;8.978;2023-04-15T14:23:45;12.10;95.70
27026;DHT22;14565;48.626;8.978;2023-04-15T14:26:11;12.30;95.10
27026;DHT22;14565;48.626;8.978;2023-04-15T14:28:38;12.30;95.90
27026;DHT22;14565;48.626;8.978;2023-04-15T14:31:03;12.40;94.90
27026;DHT22;14565;48.626;8.978;2023-04-15T14:33:29;11.80;94.50
27026;DHT22;14565;48.626;8.978;2023-04-15T14:35:55;11.80;95.00
27026;DHT22;14565;48.626;8.978;2023-04-15T14:38:20;11.60;93.00
27026;DHT22;14565;48.626;8.978;2023-04-15T14:40:47;11.60;93.30
27026;DHT22;14565;48.626;8.978;2023-04-15T14:43:12;11.30;93.20
27026;DHT22;14565;48.626;8.978;2023-04-15T14:45:38;11.40;93.00
27026;DHT22;14565;48.626;8.978;2023-04-15T14:48:04;11.40;93.70
27026;DHT22;14565;48.626;8.978;2023-04-15T14:50:31;11.30;93.20
27026;DHT22;14565;48.626;8.978;2023-04-15T14:52:57;11.30;93.60
27026;DHT22;14565;48.626;8.978;2023-04-15T14:55:23;11.20;93.80
27026;DHT22;14565;48.626;8.978;2023-04-15T14:57:49;11.20;94.00
27026;DHT22;14565;48.626;8.978;2023-04-15T15:00:14;11.10;93.70
27026;DHT22;14565;48.626;8.978;2023-04-15T15:02:40;11.10;93.80
27026;DHT22;14565;48.626;8.978;2023-04-15T15:05:08;11.40;94.30
27026;DHT22;14565;48.626;8.978;2023-04-15T15:07:34;11.40;94.80
27026;DHT22;14565;48.626;8.978;2023-04-15T15:10:01;11.40;95.10
27026;DHT22;14565;48.626;8.978;2023-04-15T15:12:27;11.30;95.10
27026;DHT22;14565;48.626;8.978;2023-04-15T15:14:54;11.30;95.20
27026;DHT22;14565;48.626;8.978;2023-04-15T15:17:20;11.30;95.70
27026;DHT22;14565;48.626;8.978;2023-04-15T15:19:46;11.50;95.90
27026;DHT22;14565;48.626;8.978;2023-04-15T15:22:11;11.40;96.00
27026;DHT22;14565;48.626;8.978;2023-04-15T15:24:37;11.40;96.00
27026;DHT22;14565;48.626;8.978;2023-04-15T15:27:02;11.20;96.00
27026;DHT22;14565;48.626;8.978;2023-04-15T15:29:28;11.20;96.90
27026;DHT22;14565;48.626;8.978;2023-04-15T15:31:54;11.00;97.30
27026;DHT22;14565;48.626;8.978;2023-04-15T15:34:19;10.90;98.00
27026;DHT22;14565;48.626;8.978;2023-04-15T15:36:45;11.00;97.60
27026;DHT22;14565;48.626;8.978;2023-04-15T15:39:11;11.00;97.90
27026;DHT22;14565;48.626;8.978;2023-04-15T15:41:36;11.10;97.70
27026;DHT22;14565;48.626;8.978;2023-04-15T15:44:02;11.10;97.90
27026;DHT22;14565;48.626;8.978;2023-04-15T15:46:28;11.00;98.30
27026;DHT22;14565;48.626;8.978;2023-04-15T15:48:56;11.00;98.90
27026;DHT22;14565;48.626;8.978;2023-04-15T15:51:22;10.90;98.40
27026;DHT22;14565;48.626;8.978;2023-04-15T15:53:47;10.90;98.80
27026;DHT22;14565;48.626;8.978;2023-04-15T15:56:13;11.00;98.90
27026;DHT22;14565;48.626;8.978;2023-04-15T15:58:40;10.80;98.50
27026;DHT22;14565;48.626;8.978;2023-04-15T16:01:05;10.80;98.90
27026;DHT22;14565;48.626;8.978;2023-04-15T16:03:31;10.80;99.40
27026;DHT22;14565;48.626;8.978;2023-04-15T16:05:57;11.00;98.60
27026;DHT22;14565;48.626;8.978;2023-04-15T16:08:22;11.00;98.90
27026;DHT22;14565;48.626;8.978;2023-04-15T16:10:48;11.10;99.50
27026;DHT22;14565;48.626;8.978;2023-04-15T16:13:14;10.90;98.80
27026;DHT22;14565;48.626;8.978;2023-04-15T16:15:40;10.80;99.40
27026;DHT22;14565;48.626;8.978;2023-04-15T16:18:05;10.80;99.90
27026;DHT22;14565;48.626;8.978;2023-04-15T16:20:31;10.70;99.90
27026;DHT22;14565;48.626;8.978;2023-04-15T16:22:57;10.60;99.90
27026;DHT22;14565;48.626;8.978;2023-04-15T16:25:23;10.70;99.90
27026;DHT22;14565;48.626;8.978;2023-04-15T16:27:49;10.80;99.90
27026;DHT22;14565;48.626;8.978;2023-04-15T16:30:15;10.70;99.90
27026;DHT22;14565;48.626;8.978;2023-04-15T16:32:41;10.60;99.90
27026;DHT22;14565;48.626;8.978;2023-04-15T16:35:07;10.60;99.90
27026;DHT22;14565;48.626;8.978;2023-04-15T16:37:36;10.60;99.90
27026;DHT22;14565;48.626;8.978;2023-04-15T16:40:02;10.50;99.90
27026;DHT22;14565;48.626;8.978;2023-04-15T16:42:28;10.50;99.90
27026;DHT22;14565;48.626;8.978;2023-04-15T16:44:54;10.40;99.90
27026;DHT22;14565;48.626;8.978;2023-04-15T16:47:20;10.20;99.90
27026;DHT22;14565;48.626;8.978;2023-04-15T16:49:46;10.10;99.90
27026;DHT22;14565;48.626;8.978;2023-04-15T16:52:12;10.10;99.90
27026;DHT22;14565;48.626;8.978;2023-04-15T16:54:38;10.10;99.90
27026;DHT22;14565;48.626;8.978;2023-04-15T16:57:06;10.00;99.90
27026;DHT22;14565;48.626;8.978;2023-04-15T16:59:32;9.90;99.90
27026;DHT22;14565;48.626;8.978;2023-04-15T17:01:57;9.90;99.90
27026;DHT22;14565;48.626;8.978;2023-04-15T17:04:23;9.90;99.90
27026;DHT22;14565;48.626;8.978;2023-04-15T17:06:49;9.90;99.90
27026;DHT22;14565;48.626;8.978;2023-04-15T17:09:15;10.00;99.90
27026;DHT22;14565;48.626;8.978;2023-04-15T17:11:40;9.70;99.90
27026;DHT22;14565;48.626;8.978;2023-04-15T17:14:07;9.60;99.90
27026;DHT22;14565;48.626;8.978;2023-04-15T17:16:33;9.40;99.90
27026;DHT22;14565;48.626;8.978;2023-04-15T17:18:58;9.30;99.90
27026;DHT22;14565;48.626;8.978;2023-04-15T17:21:25;9.20;99.90
27026;DHT22;14565;48.626;8.978;2023-04-15T17:23:51;8.90;99.90
27026;DHT22;14565;48.626;8.978;2023-04-15T17:26:19;8.70;99.90
27026;DHT22;14565;48.626;8.978;2023-04-15T17:28:45;8.60;99.90
27026;DHT22;14565;48.626;8.978;2023-04-15T17:31:10;8.60;99.90
27026;DHT22;14565;48.626;8.978;2023-04-15T17:33:37;8.50;99.90
27026;DHT22;14565;48.626;8.978;2023-04-15T17:36:03;8.50;99.90
27026;DHT22;14565;48.626;8.978;2023-04-15T17:38:29;8.50;99.90
27026;DHT22;14565;48.626;8.978;2023-04-15T17:40:54;8.40;99.90
27026;DHT22;14565;48.626;8.978;2023-04-15T17:43:20;8.30;99.90
27026;DHT22;14565;48.626;8.978;2023-04-15T17:45:46;8.30;99.90
27026;DHT22;14565;48.626;8.978;2023-04-15T17:48:12;8.10;99.90
27026;DHT22;14565;48.626;8.978;2023-04-15T17:50:38;8.00;99.90
27026;DHT22;14565;48.626;8.978;2023-04-15T17:53:04;7.80;99.90
27026;DHT22;14565;48.626;8.978;2023-04-15T17:55:33;7.70;99.90
27026;DHT22;14565;48.626;8.978;2023-04-15T17:58:00;7.50;99.90
27026;DHT22;14565;48.626;8.978;2023-04-15T18:00:25;7.50;99.90
27026;DHT22;14565;48.626;8.978;2023-04-15T18:02:51;7.40;99.90
27026;DHT22;14565;48.626;8.978;2023-04-15T18:05:17;7.40;99.90
27026;DHT22;14565;48.626;8.978;2023-04-15T18:07:44;7.40;99.90
27026;DHT22;14565;48.626;8.978;2023-04-15T18:10:10;7.50;99.90
27026;DHT22;14565;48.626;8.978;2023-04-15T18:12:36;7.40;99.90
27026;DHT22;14565;48.626;8.978;2023-04-15T18:15:02;7.30;99.90
27026;DHT22;14565;48.626;8.978;2023-04-15T18:17:28;7.30;99.90
27026;DHT22;14565;48.626;8.978;2023-04-15T18:19:54;7.40;99.90
27026;DHT22;14565;48.626;8.978;2023-04-15T18:22:20;7.40;99.90
27026;DHT22;14565;48.626;8.978;2023-04-15T18:24:46;7.40;99.90
27026;DHT22;14565;48.626;8.978;2023-04-15T18:27:15;7.30;99.90
27026;DHT22;14565;48.626;8.978;2023-04-15T18:29:40;7.40;99.90
27026;DHT22;14565;48.626;8.978;2023-04-15T18:32:07;7.40;99.90
27026;DHT22;14565;48.626;8.978;2023-04-15T18:34:33;7.20;99.90
27026;DHT22;14565;48.626;8.978;2023-04-15T18:36:59;7.20;99.90
27026;DHT22;14565;48.626;8.978;2023-04-15T18:39:25;7.40;99.90
27026;DHT22;14565;48.626;8.978;2023-04-15T18:41:52;7.20;99.90
27026;DHT22;14565;48.626;8.978;2023-04-15T18:44:18;7.20;99.90
27026;DHT22;14565;48.626;8.978;2023-04-15T18:46:43;7.30;99.90
27026;DHT22;14565;48.626;8.978;2023-04-15T18:49:10;7.10;99.90
27026;DHT22;14565;48.626;8.978;2023-04-15T18:51:36;7.20;99.90
27026;DHT22;14565;48.626;8.978;2023-04-15T18:54:02;7.20;99.90
27026;DHT22;14565;48.626;8.978;2023-04-15T18:56:27;7.20;99.90
27026;DHT22;14565;48.626;8.978;2023-04-15T18:58:54;7.40;99.90
27026;DHT22;14565;48.626;8.978;2023-04-15T19:01:20;7.50;99.90
27026;DHT22;14565;48.626;8.978;2023-04-15T19:03:45;7.40;99.90
27026;DHT22;14565;48.626;8.978;2023-04-15T19:06:11;7.30;99.90
27026;DHT22;14565;48.626;8.978;2023-04-15T19:08:37;7.30;99.90
27026;DHT22;14565;48.626;8.978;2023-04-15T19:11:02;7.30;99.90
27026;DHT22;14565;48.626;8.978;2023-04-15T19:13:28;7.30;99.90
27026;DHT22;14565;48.626;8.978;2023-04-15T19:15:54;7.30;99.90
27026;DHT22;14565;48.626;8.978;2023-04-15T19:18:20;7.30;99.90
27026;DHT22;14565;48.626;8.978;2023-04-15T19:20:46;7.20;99.90
27026;DHT22;14565;48.626;8.978;2023-04-15T19:23:12;7.20;99.90
27026;DHT22;14565;48.626;8.978;2023-04-15T19:25:37;7.20;99.90
27026;DHT22;14565;48.626;8.978;2023-04-15T19:28:03;7.40;99.90
27026;DHT22;14565;48.626;8.978;2023-04-15T19:30:29;7.10;99.90
27026;DHT22;14565;48.626;8.978;2023-04-15T19:32:57;7.10;99.90
27026;DHT22;14565;48.626;8.978;2023-04-15T19:35:23;7.10;99.90
27026;DHT22;14565;48.626;8.978;2023-04-15T19:37:48;7.10;99.90
27026;DHT22;14565;48.626;8.978;2023-04-15T19:40:14;7.10;99.90
27026;DHT22;14565;48.626;8.978;2023-04-15T19:42:40;7.10;99.90
27026;DHT22;14565;48.626;8.978;2023-04-15T19:45:06;7.20;99.90
27026;DHT22;14565;48.626;8.978;2023-04-15T19:47:32;7.10;99.90
27026;DHT22;14565;48.626;8.978;2023-04-15T19:49:58;7.20;99.90
27026;DHT22;14565;48.626;8.978;2023-04-15T19:52:24;7.20;99.90
27026;DHT22;14565;48.626;8.978;2023-04-15T19:54:49;7.00;99.90
27026;DHT22;14565;48.626;8.978;2023-04-15T19:57:15;7.00;99.90
27026;DHT22;14565;48.626;8.978;2023-04-15T19:59:41;6.90;99.90
27026;DHT22;14565;48.626;8.978;2023-04-15T20:02:07;7.00;99.90
27026;DHT22;14565;48.626;8.978;2023-04-15T20:04:33;6.90;99.90
27026;DHT22;14565;48.626;8.978;2023-04-15T20:06:58;7.00;99.90
27026;DHT22;14565;48.626;8.978;2023-04-15T20:09:24;7.10;99.90
27026;DHT22;14565;48.626;8.978;2023-04-15T20:11:50;7.00;99.90
27026;DHT22;14565;48.626;8.978;2023-04-15T20:14:16;7.10;99.90
27026;DHT22;14565;48.626;8.978;2023-04-15T20:16:47;7.10;99.90
27026;DHT22;14565;48.626;8.978;2023-04-15T20:19:13;7.20;99.90
27026;DHT22;14565;48.626;8.978;2023-04-15T20:21:39;7.10;99.90
27026;DHT22;14565;48.626;8.978;2023-04-15T20:24:05;7.10;99.90
27026;DHT22;14565;48.626;8.978;2023-04-15T20:26:31;7.20;99.90
27026;DHT22;14565;48.626;8.978;2023-04-15T20:28:58;7.20;99.90
27026;DHT22;14565;48.626;8.978;2023-04-15T20:31:23;7.20;99.90
27026;DHT22;14565;48.626;8.978;2023-04-15T20:33:49;7.20;99.90
27026;DHT22;14565;48.626;8.978;2023-04-15T20:36:15;7.00;99.90
27026;DHT22;14565;48.626;8.978;2023-04-15T20:38:41;7.10;99.90
27026;DHT22;14565;48.626;8.978;2023-04-15T20:41:06;7.10;99.90
27026;DHT22;14565;48.626;8.978;2023-04-15T20:43:32;7.10;99.90
27026;DHT22;14565;48.626;8.978;2023-04-15T20:45:58;7.00;99.90
27026;DHT22;14565;48.626;8.978;2023-04-15T20:48:23;7.00;99.90
27026;DHT22;14565;48.626;8.978;2023-04-15T20:50:49;7.10;99.90
27026;DHT22;14565;48.626;8.978;2023-04-15T20:53:15;7.10;99.90
27026;DHT22;14565;48.626;8.978;2023-04-15T20:55:42;7.10;99.90
27026;DHT22;14565;48.626;8.978;2023-04-15T20:58:09;7.20;99.90
27026;DHT22;14565;48.626;8.978;2023-04-15T21:00:35;7.10;99.90
27026;DHT22;14565;48.626;8.978;2023-04-15T21:03:00;7.10;99.90
27026;DHT22;14565;48.626;8.978;2023-04-15T21:05:26;6.90;99.90
27026;DHT22;14565;48.626;8.978;2023-04-15T21:07:52;7.10;99.90
27026;DHT22;14565;48.626;8.978;2023-04-15T21:10:19;6.80;99.90
27026;DHT22;14565;48.626;8.978;2023-04-15T21:12:45;6.90;99.90
27026;DHT22;14565;48.626;8.978;2023-04-15T21:15:11;6.90;99.90
27026;DHT22;14565;48.626;8.978;2023-04-15T21:17:38;7.00;99.90
27026;DHT22;14565;48.626;8.978;2023-04-15T21:20:04;7.10;99.90
27026;DHT22;14565;48.626;8.978;2023-04-15T21:22:30;7.10;99.90
27026;DHT22;14565;48.626;8.978;2023-04-15T21:24:56;7.00;99.90
27026;DHT22;14565;48.626;8.978;2023-04-15T21:27:21;7.00;99.90
27026;DHT22;14565;48.626;8.978;2023-04-15T21:29:47;7.00;99.90
27026;DHT22;14565;48.626;8.978;2023-04-15T21:32:13;7.10;99.90
27026;DHT22;14565;48.626;8.978;2023-04-15T21:34:39;7.00;99.90
27026;DHT22;14565;48.626;8.978;2023-04-15T21:37:04;6.90;99.90
27026;DHT22;14565;48.626;8.978;2023-04-15T21:39:30;7.00;99.90
27026;DHT22;14565;48.626;8.978;2023-04-15T21:41:56;7.10;99.90
27026;DHT22;14565;48.626;8.978;2023-04-15T21:44:22;7.00;99.90
27026;DHT22;14565;48.626;8.978;2023-04-15T21:46:49;7.10;99.90
27026;DHT22;14565;48.626;8.978;2023-04-15T21:49:15;7.10;99.90
27026;DHT22;14565;48.626;8.978;2023-04-15T21:51:40;7.10;99.90
27026;DHT22;14565;48.626;8.978;2023-04-15T21:54:06;7.10;99.90
27026;DHT22;14565;48.626;8.978;2023-04-15T21:56:32;7.10;99.90
27026;DHT22;14565;48.626;8.978;2023-04-15T21:58:57;7.10;99.90
27026;DHT22;14565;48.626;8.978;2023-04-15T22:01:24;7.20;99.90
27026;DHT22;14565;48.626;8.978;2023-04-15T22:03:50;7.00;99.90
27026;DHT22;14565;48.626;8.978;2023-04-15T22:06:16;7.10;99.90
27026;DHT22;14565;48.626;8.978;2023-04-15T22:08:42;7.10;99.90
27026;DHT22;14565;48.626;8.978;2023-04-15T22:11:08;7.10;99.90
27026;DHT22;14565;48.626;8.978;2023-04-15T22:13:33;7.10;99.90
27026;DHT22;14565;48.626;8.978;2023-04-15T22:15:59;7.00;99.90
27026;DHT22;14565;48.626;8.978;2023-04-15T22:18:25;6.90;99.90
27026;DHT22;14565;48.626;8.978;2023-04-15T22:20:51;7.00;99.90
27026;DHT22;14565;48.626;8.978;2023-04-15T22:23:16;7.10;99.90
27026;DHT22;14565;48.626;8.978;2023-04-15T22:25:45;7.10;99.90
27026;DHT22;14565;48.626;8.978;2023-04-15T22:28:11;7.10;99.90
27026;DHT22;14565;48.626;8.978;2023-04-15T22:30:38;7.10;99.90
27026;DHT22;14565;48.626;8.978;2023-04-15T22:33:04;6.90;99.90
27026;DHT22;14565;48.626;8.978;2023-04-15T22:35:30;7.00;99.90
27026;DHT22;14565;48.626;8.978;2023-04-15T22:37:56;7.00;99.90
27026;DHT22;14565;48.626;8.978;2023-04-15T22:40:22;7.10;99.90
27026;DHT22;14565;48.626;8.978;2023-04-15T22:42:47;7.00;99.90
27026;DHT22;14565;48.626;8.978;2023-04-15T22:45:13;7.00;99.90
27026;DHT22;14565;48.626;8.978;2023-04-15T22:47:39;7.10;99.90
27026;DHT22;14565;48.626;8.978;2023-04-15T22:50:05;7.10;99.90
27026;DHT22;14565;48.626;8.978;2023-04-15T22:52:31;7.00;99.90
27026;DHT22;14565;48.626;8.978;2023-04-15T22:54:57;7.10;99.90
27026;DHT22;14565;48.626;8.978;2023-04-15T22:57:23;7.00;99.90
27026;DHT22;14565;48.626;8.978;2023-04-15T22:59:48;7.00;99.90
27026;DHT22;14565;48.626;8.978;2023-04-15T23:02:14;7.10;99.90
27026;DHT22;14565;48.626;8.978;2023-04-15T23:04:39;7.00;99.90
27026;DHT22;14565;48.626;8.978;2023-04-15T23:07:05;7.00;99.90
27026;DHT22;14565;48.626;8.978;2023-04-15T23:09:31;7.00;99.90
27026;DHT22;14565;48.626;8.978;2023-04-15T23:11:56;7.00;99.90
27026;DHT22;14565;48.626;8.978;2023-04-15T23:14:22;7.10;99.90
27026;DHT22;14565;48.626;8.978;2023-04-15T23:16:48;7.10;99.90
27026;DHT22;14565;48.626;8.978;2023-04-15T23:19:13;7.00;99.90
27026;DHT22;14565;48.626;8.978;2023-04-15T23:21:40;7.00;99.90
27026;DHT22;14565;48.626;8.978;2023-04-15T23:24:05;7.10;99.90
27026;DHT22;14565;48.626;8.978;2023-04-15T23:26:31;7.00;99.90
27026;DHT22;14565;48.626;8.978;2023-04-15T23:28:56;7.10;99.90
27026;DHT22;14565;48.626;8.978;2023-04-15T23:31:22;6.90;99.90
27026;DHT22;14565;48.626;8.978;2023-04-15T23:33:48;7.00;99.90
27026;DHT22;14565;48.626;8.978;2023-04-15T23:36:13;7.00;99.90
27026;DHT22;14565;48.626;8.978;2023-04-15T23:38:39;7.00;99.90
27026;DHT22;14565;48.626;8.978;2023-04-15T23:41:05;7.00;99.90
27026;DHT22;14565;48.626;8.978;2023-04-15T23:43:30;7.10;99.90
27026;DHT22;14565;48.626;8.978;2023-04-15T23:45:56;7.10;99.90
27026;DHT22;14565;48.626;8.978;2023-04-15T23:48:22;7.10;99.90
27026;DHT22;14565;48.626;8.978;2023-04-15T23:50:48;7.20;99.90
27026;DHT22;14565;48.626;8.978;2023-04-15T23:53:14;7.10;99.90
27026;DHT22;14565;48.626;8.978;2023-04-15T23:55:40;7.10;99.90
27026;DHT22;14565;48.626;8.978;2023-04-15T23:58:05;7.10;99.90
